CPX997 Details

Departure: Los Angeles International Airport (KLAX)
Arrival: Incheon International Airport (RKSI)
Route: SUMMR1 MCKEY LIBBO BRINY BOARS BOXER FULMR FASEL 5300N/14000W 5500N/15000W 5600N/16000W ONEOX B757 NULUK R220 NUZAN NIPPI R220 NOGAL R220 NANNO R220 NODAN NIKON IXE Y88 CHINO Y16 SAPRA G585 CUN CUN1M


Current Weather Information
KLAX 260131Z 27012KT 10SM BKN010 BKN250 16/12 A2995 RMK AO2 T01610122
RKSI 260130Z 05007KT 4200 -RA BR SCT005 BKN030 OVC100 08/06 Q1013 NOSIG